Savage Insight — WDF9252 — position and weather

sailwx.info

Track history (hours):
 
Tides and Currents Weather Stations Pressure Air Temp Water Temp Dewpoint Dewpoint Depression Visibility Wind Speed Wind Dir Waves Ship Positions

Savage Insight

Owner: Savage Inland Marine, Gibson, LA. More information available from US FCC via Universal Licensing System and Coast Guard Vessel Documentation Center.

Last reported at 2018-Jul-20 12:18 UTC. Time now 2018-Jul-20 14:23 UTC.
Position N 29°59' W 090°24'.

Length 32 m.

Type: Towing. MMSI: 367503240.

Date/timePositionNaut miles runAvg speedWind from/ knotsBaromVisibWave heightAir tempDewpointWater temp
2018-Jul-20 12:18N 29°59' W 090°24'0 1.2
2018-Jul-20 12:00N 29°59' W 090°24'2 3.3
2018-Jul-20 11:30N 29°57' W 090°23'2 4.8
2018-Jul-20 10:59N 29°56' W 090°21'12 3.5
2018-Jul-20 07:32N 29°55' W 090°07'34 2.5
2018-Jul-19 17:44N 29°36' W 090°39'4 2.7
2018-Jul-19 16:25N 29°34' W 090°43'1 3.3
2018-Jul-19 15:59N 29°34' W 090°45'2 4.1
2018-Jul-19 15:30N 29°32' W 090°46'63 3.6
2018-Jul-18 22:20N 29°51' W 091°55'2 4.8
2018-Jul-18 22:00N 29°51' W 091°57'2 4.5
2018-Jul-18 21:30N 29°50' W 091°59'2 5.0
2018-Jul-18 21:00N 29°49' W 092°02'2 4.5
2018-Jul-18 20:30N 29°48' W 092°04'2 4.4
2018-Jul-18 20:00N 29°48' W 092°07'2 4.4
2018-Jul-18 19:30N 29°47' W 092°09'2 3.8
2018-Jul-18 19:00N 29°47' W 092°11'2 4.3
2018-Jul-18 18:30N 29°48' W 092°13'2 4.6
2018-Jul-18 18:00N 29°48' W 092°16'2 4.1
2018-Jul-18 17:30N 29°50' W 092°18'2 4.0
2018-Jul-18 17:00N 29°51' W 092°20'3 3.9
2018-Jul-18 16:15N 29°52' W 092°23'19 4.3
2018-Jul-18 11:50N 29°58' W 092°44'2 4.2
2018-Jul-18 11:27N 29°58' W 092°46'4 4.2
2018-Jul-18 10:30N 29°58' W 092°50'2 4.5
2018-Jul-18 09:59N 29°57' W 092°53'2 3.7
2018-Jul-18 09:27N 29°56' W 092°55'2 3.6
2018-Jul-18 09:00N 29°56' W 092°57'2 3.6
2018-Jul-18 08:26N 29°56' W 092°59'2 3.7
2018-Jul-18 07:57N 29°56' W 093°01'2 3.6
2018-Jul-18 07:29N 29°56' W 093°03'2 3.6
2018-Jul-18 06:58N 29°56' W 093°05'2 3.7
2018-Jul-18 06:30N 29°56' W 093°07'2 3.6
2018-Jul-18 06:00N 29°56' W 093°09'2 3.4
2018-Jul-18 05:30N 29°57' W 093°11'2 3.6
2018-Jul-18 05:00N 29°59' W 093°12'2 3.5
2018-Jul-18 04:30N 29°60' W 093°13'2 3.4
2018-Jul-18 04:00N 30°01' W 093°14'2 3.3
2018-Jul-18 03:30N 30°02' W 093°16'1 2.9
2018-Jul-18 03:00N 30°04' W 093°16'2 3.1
2018-Jul-18 02:30N 30°05' W 093°17'1 1.3
2018-Jul-18 02:00N 30°05' W 093°18'1 1.3
2018-Jul-18 01:30N 30°06' W 093°18'1 1.4
2018-Jul-18 01:00N 30°06' W 093°19'0 0.1
2018-Jul-18 00:30N 30°06' W 093°19'0 0.0
2018-Jul-18 00:00N 30°06' W 093°19'0 0.0
2018-Jul-17 23:30N 30°06' W 093°19'0 0.0
2018-Jul-17 23:00N 30°06' W 093°19'0 0.0
2018-Jul-17 22:30N 30°06' W 093°19'0 0.0
2018-Jul-17 22:00N 30°06' W 093°19'0 0.0
2018-Jul-17 21:30N 30°06' W 093°19'0 0.0
2018-Jul-17 21:00N 30°06' W 093°19'0 0.0
2018-Jul-17 20:30N 30°06' W 093°19'0 0.0
2018-Jul-17 19:59N 30°06' W 093°19'0 0.0
2018-Jul-17 19:30N 30°06' W 093°19'0 0.0
2018-Jul-17 19:00N 30°06' W 093°19'0 0.0
2018-Jul-17 18:30N 30°06' W 093°19'0 0.0
2018-Jul-17 18:00N 30°06' W 093°19'0 0.0
2018-Jul-17 17:30N 30°06' W 093°19'0 0.0
2018-Jul-17 17:00N 30°06' W 093°19'0 0.0
2018-Jul-17 16:30N 30°06' W 093°19'0 0.0
2018-Jul-17 16:00N 30°06' W 093°19'0 0.0
2018-Jul-17 15:30N 30°06' W 093°19'0 0.0
2018-Jul-17 15:00N 30°06' W 093°19'0 0.0
2018-Jul-17 14:30N 30°06' W 093°19'0 0.0
2018-Jul-17 14:00N 30°06' W 093°19'0 0.0
2018-Jul-17 13:30N 30°06' W 093°19'0 0.0
2018-Jul-17 13:00N 30°06' W 093°19'0 0.0
2018-Jul-17 12:30N 30°06' W 093°19'0 0.0
2018-Jul-17 12:00N 30°06' W 093°19'0 0.0
2018-Jul-17 11:30N 30°06' W 093°19'0 0.0
2018-Jul-17 11:00N 30°06' W 093°19'0 0.0
2018-Jul-17 10:30N 30°06' W 093°19'0 0.0
2018-Jul-17 10:00N 30°06' W 093°19'0 0.0
2018-Jul-17 09:30N 30°06' W 093°19'0 0.0
2018-Jul-17 09:00N 30°06' W 093°19'0 0.0
2018-Jul-17 08:30N 30°06' W 093°19'0 0.0
2018-Jul-17 08:00N 30°06' W 093°19'0 0.0
2018-Jul-17 07:30N 30°06' W 093°19'0 0.0
2018-Jul-17 07:00N 30°06' W 093°19'0 0.0
2018-Jul-17 06:26N 30°06' W 093°19'0 0.0
2018-Jul-17 05:59N 30°06' W 093°19'0 0.0
2018-Jul-17 05:20N 30°06' W 093°19'0 0.0
2018-Jul-17 04:58N 30°06' W 093°19'0 0.0
2018-Jul-17 04:17N 30°06' W 093°19'0 0.0
2018-Jul-17 03:33N 30°06' W 093°19'0 0.2
2018-Jul-17 03:30N 30°06' W 093°19'0 0.0
2018-Jul-17 02:59N 30°06' W 093°19'0 0.0
2018-Jul-17 02:30N 30°06' W 093°19'0 0.0
2018-Jul-17 02:00N 30°06' W 093°19'0 0.0
2018-Jul-17 01:30N 30°06' W 093°19'0 0.0
2018-Jul-17 01:00N 30°06' W 093°19'0 0.0
2018-Jul-17 00:30N 30°06' W 093°19'0 0.0
2018-Jul-16 23:28N 30°06' W 093°19'0 0.0
2018-Jul-16 23:00N 30°06' W 093°19'0 0.0
2018-Jul-16 22:30N 30°06' W 093°19'0 0.0
2018-Jul-16 22:00N 30°06' W 093°19'0 0.0
2018-Jul-16 21:29N 30°06' W 093°19'0 0.0
2018-Jul-16 21:00N 30°06' W 093°19'0 0.0
2018-Jul-16 20:30N 30°06' W 093°19'0 0.0
2018-Jul-16 20:00N 30°06' W 093°19'0 0.0
2018-Jul-16 19:30N 30°06' W 093°19'0 0.0
2018-Jul-16 19:00N 30°06' W 093°19'0 0.0
2018-Jul-16 18:30N 30°06' W 093°19'0 0.0
2018-Jul-16 18:00N 30°06' W 093°19'0 0.0
2018-Jul-16 17:30N 30°06' W 093°19'0 0.0
2018-Jul-16 17:00N 30°06' W 093°19'0 0.0
2018-Jul-16 16:28N 30°06' W 093°19'0 0.0
2018-Jul-16 16:00N 30°06' W 093°19'0 0.0
2018-Jul-16 15:30N 30°06' W 093°19'0 0.0
2018-Jul-16 15:00N 30°06' W 093°19'0 0.0
2018-Jul-16 14:30N 30°06' W 093°19'0 0.0
2018-Jul-16 14:00N 30°06' W 093°19'0 0.0
2018-Jul-16 13:30N 30°06' W 093°19'0 0.9
2018-Jul-16 13:00N 30°06' W 093°19'2 3.5
2018-Jul-16 12:30N 30°04' W 093°21'2 3.3
2018-Jul-16 12:00N 30°04' W 093°22'1 2.8
2018-Jul-16 11:30N 30°04' W 093°24'2 3.1
2018-Jul-16 10:59N 30°04' W 093°26'0 0.3
2018-Jul-16 10:31N 30°04' W 093°26'0 0.0
2018-Jul-16 10:01N 30°04' W 093°26'0 0.0
2018-Jul-16 09:30N 30°04' W 093°26'0 0.0
2018-Jul-16 08:57N 30°04' W 093°26'0 0.0
2018-Jul-16 08:30N 30°04' W 093°26'0 0.0
2018-Jul-16 08:00N 30°04' W 093°26'0 0.0
2018-Jul-16 07:30N 30°04' W 093°26'0 0.0
2018-Jul-16 07:00N 30°04' W 093°26'0 0.0
2018-Jul-16 06:30N 30°04' W 093°26'0 0.0
2018-Jul-16 06:00N 30°04' W 093°26'0 0.0
2018-Jul-16 05:30N 30°04' W 093°26'0 0.0
2018-Jul-16 05:00N 30°04' W 093°26'0 0.0
2018-Jul-16 04:30N 30°04' W 093°26'0 0.0
2018-Jul-16 04:00N 30°04' W 093°26'0 0.0
2018-Jul-16 03:30N 30°04' W 093°26'0 0.0
2018-Jul-16 03:00N 30°04' W 093°26'0 0.0
2018-Jul-16 02:29N 30°04' W 093°26'0 0.0
2018-Jul-16 02:00N 30°04' W 093°26'0 0.0
2018-Jul-16 01:30N 30°04' W 093°26'0 0.0
2018-Jul-16 01:00N 30°04' W 093°26'0 0.0
2018-Jul-16 00:30N 30°04' W 093°26'0 0.0
2018-Jul-16 00:00N 30°04' W 093°26'0 0.0
2018-Jul-15 23:30N 30°04' W 093°26'0 0.0
2018-Jul-15 23:00N 30°04' W 093°26'0 0.0
2018-Jul-15 22:30N 30°04' W 093°26'0 0.0
2018-Jul-15 22:00N 30°04' W 093°26'0 0.0
2018-Jul-15 21:30N 30°04' W 093°26'0 0.9
2018-Jul-15 21:00N 30°04' W 093°26'1 2.5
2018-Jul-15 20:30N 30°04' W 093°28'0 0.0
2018-Jul-15 20:00N 30°04' W 093°28'0 0.0
2018-Jul-15 19:30N 30°04' W 093°28'0 0.2
2018-Jul-15 19:00N 30°04' W 093°28'1 1.0
2018-Jul-15 18:30N 30°04' W 093°29'1 2.3
2018-Jul-15 18:00N 30°04' W 093°30'1 2.4
2018-Jul-15 17:30N 30°04' W 093°31'1 2.5
2018-Jul-15 17:00N 30°04' W 093°33'1 1.3
2018-Jul-15 16:30N 30°04' W 093°33'0 0.3
2018-Jul-15 16:00N 30°04' W 093°34'0 0.1
2018-Jul-15 15:30N 30°04' W 093°34'0 0.2
2018-Jul-15 15:00N 30°04' W 093°34'0 0.3
2018-Jul-15 14:30N 30°04' W 093°34'0 0.2
2018-Jul-15 14:00N 30°04' W 093°34'0 0.1
2018-Jul-15 13:29N 30°04' W 093°34'0 0.3
2018-Jul-15 13:00N 30°04' W 093°34'0 0.1
2018-Jul-15 12:30N 30°04' W 093°34'0 0.0
2018-Jul-15 11:58N 30°04' W 093°34'0 0.0
2018-Jul-15 11:29N 30°04' W 093°34'0 0.0
2018-Jul-15 11:00N 30°04' W 093°34'0 0.0
2018-Jul-15 10:29N 30°04' W 093°34'0 0.0
2018-Jul-15 09:53N 30°04' W 093°34'0 0.0
2018-Jul-15 09:28N 30°04' W 093°34'0 0.0
2018-Jul-15 09:00N 30°04' W 093°34'0 0.0
2018-Jul-15 08:30N 30°04' W 093°34'0 0.0
2018-Jul-15 08:00N 30°04' W 093°34'0 0.0
2018-Jul-15 07:30N 30°04' W 093°34'0 0.0
2018-Jul-15 07:00N 30°04' W 093°34'0 0.0
2018-Jul-15 06:30N 30°04' W 093°34'0 0.0
2018-Jul-15 06:00N 30°04' W 093°34'0 0.0
2018-Jul-15 05:30N 30°04' W 093°34'0 0.0
2018-Jul-15 05:00N 30°04' W 093°34'0 0.0
2018-Jul-15 04:30N 30°04' W 093°34'0 0.0
2018-Jul-15 04:00N 30°04' W 093°34'0 0.0
2018-Jul-15 03:28N 30°04' W 093°34'0 0.0
2018-Jul-15 02:59N 30°04' W 093°34'0 0.2
2018-Jul-15 02:30N 30°04' W 093°34'1 1.4
2018-Jul-15 01:59N 30°04' W 093°35'0 0.0
2018-Jul-15 01:30N 30°04' W 093°35'0 0.0
2018-Jul-15 01:00N 30°04' W 093°35'0 0.0
2018-Jul-15 00:21N 30°04' W 093°35'0 0.2
2018-Jul-14 23:12N 30°04' W 093°35'0 1.2
2018-Jul-14 22:59N 30°04' W 093°36'1 1.9
2018-Jul-14 22:19N 30°04' W 093°37'0 0.0
2018-Jul-14 21:52N 30°04' W 093°37'1 2.6
2018-Jul-14 21:29N 30°04' W 093°38'0 0.8
2018-Jul-14 21:00N 30°04' W 093°39'0 0.0
2018-Jul-14 20:30N 30°04' W 093°39'0 0.0
2018-Jul-14 20:00N 30°04' W 093°39'0 0.0
2018-Jul-14 19:30N 30°04' W 093°39'0 0.2
2018-Jul-14 18:34N 30°03' W 093°39'0 0.6
2018-Jul-14 18:15N 30°04' W 093°39'1 5.0
2018-Jul-14 17:59N 30°03' W 093°41'2 4.7
2018-Jul-14 17:30N 30°03' W 093°43'1 2.1
2018-Jul-14 17:00N 30°02' W 093°44'3 5.0
2018-Jul-14 16:30N 30°00' W 093°46'3 5.5
2018-Jul-14 16:00N 29°59' W 093°49'2 4.9
2018-Jul-14 15:30N 29°58' W 093°51'3 6.2
2018-Jul-14 15:00N 29°55' W 093°53'3 6.5
2018-Jul-14 14:30N 29°53' W 093°55'5 5.0
2018-Jul-14 13:31N 29°49' W 093°59'0 0.0
2018-Jul-14 13:01N 29°49' W 093°59'0 0.0
2018-Jul-14 12:30N 29°49' W 093°59'0 0.0
2018-Jul-14 12:00N 29°49' W 093°59'0 0.0
2018-Jul-14 11:31N 29°49' W 093°59'0 0.0
2018-Jul-14 11:01N 29°49' W 093°59'0 0.0
2018-Jul-14 10:30N 29°49' W 093°59'0 0.5
2018-Jul-14 10:00N 29°49' W 093°59'0 0.9
2018-Jul-14 09:30N 29°49' W 093°60'2 4.1
2018-Jul-14 09:00N 29°47' W 094°01'2 4.4
2018-Jul-14 08:30N 29°46' W 094°03'2 4.4
2018-Jul-14 08:00N 29°44' W 094°05'2 4.5
2018-Jul-14 07:30N 29°43' W 094°07'2 4.5
2018-Jul-14 07:00N 29°42' W 094°09'2 4.4
2018-Jul-14 06:30N 29°41' W 094°12'2 4.5
2018-Jul-14 06:00N 29°40' W 094°14'2 3.7
2018-Jul-14 05:30N 29°39' W 094°16'2 4.3
2018-Jul-14 05:00N 29°38' W 094°18'2 4.3
2018-Jul-14 04:29N 29°37' W 094°20'2 3.4
2018-Jul-14 04:00N 29°36' W 094°22'2 3.8
2018-Jul-14 03:29N 29°36' W 094°24'2 3.6
2018-Jul-14 02:57N 29°34' W 094°25'16 4.1
2018-Jul-13 23:02N 29°27' W 094°42'0 4.7
2018-Jul-13 23:00N 29°27' W 094°42'3 4.8
2018-Jul-13 22:29N 29°25' W 094°44'2 5.0
2018-Jul-13 22:00N 29°23' W 094°46'2 4.5
2018-Jul-13 21:30N 29°22' W 094°48'3 6.9
2018-Jul-13 21:00N 29°25' W 094°50'4 6.7
2018-Jul-13 20:25N 29°29' W 094°52'3 6.5
2018-Jul-13 19:57N 29°32' W 094°53'3 6.6
2018-Jul-13 19:31N 29°34' W 094°55'3 6.7
2018-Jul-13 19:00N 29°37' W 094°57'3 6.0
2018-Jul-13 18:30N 29°40' W 094°58'3 6.5
2018-Jul-13 18:00N 29°42' W 095°01'5 2.1
2018-Jul-13 15:32N 29°46' W 095°05'1 6.2
2018-Jul-13 15:19N 29°45' W 095°06'2 6.0
2018-Jul-13 14:55N 29°44' W 095°09'3 3.2
2018-Jul-13 13:54N 29°44' W 095°12'0 0.0
2018-Jul-13 11:18N 29°44' W 095°12'3 0.2
2018-Jul-12 22:53N 29°44' W 095°09'6 0.6
2018-Jul-12 13:59N 29°47' W 095°04'2 2.9
2018-Jul-12 13:23N 29°46' W 095°05'2 4.2
2018-Jul-12 12:59N 29°45' W 095°06'2 3.9
2018-Jul-12 12:28N 29°44' W 095°08'2 3.9
2018-Jul-12 11:51N 29°45' W 095°11'1 2.6
2018-Jul-12 11:23N 29°44' W 095°13'0 0.1
2018-Jul-12 10:55N 29°44' W 095°12'0 0.0
2018-Jul-12 10:15N 29°44' W 095°12'0 0.0
2018-Jul-12 10:00N 29°44' W 095°12'0 0.0
2018-Jul-12 09:29N 29°44' W 095°12'0 0.0
2018-Jul-12 08:45N 29°44' W 095°12'0 0.0
2018-Jul-12 08:26N 29°44' W 095°12'0 0.0
2018-Jul-12 06:34N 29°44' W 095°12'0 0.0
2018-Jul-12 06:22N 29°44' W 095°12'0 0.0
2018-Jul-12 05:57N 29°44' W 095°12'0 0.0
2018-Jul-12 05:28N 29°44' W 095°12'0 0.0
2018-Jul-12 04:07N 29°44' W 095°12'7 0.5
2018-Jul-11 14:27N 29°47' W 095°05'0 0.0
2018-Jul-11 13:49N 29°47' W 095°05'0 0.0
2018-Jul-11 13:28N 29°47' W 095°05'0 0.0
2018-Jul-11 12:52N 29°47' W 095°05'0 0.0
2018-Jul-11 12:30N 29°47' W 095°05'0 0.0
2018-Jul-11 11:58N 29°47' W 095°05'0 0.0
2018-Jul-11 11:28N 29°47' W 095°05'0 0.0
2018-Jul-11 10:13N 29°47' W 095°05'0 0.0
2018-Jul-11 09:57N 29°47' W 095°05'0 0.0
2018-Jul-11 09:10N 29°47' W 095°05'0 0.0
2018-Jul-11 08:39N 29°47' W 095°05'0 0.0
2018-Jul-11 08:28N 29°47' W 095°05'0 0.0
2018-Jul-11 08:00N 29°47' W 095°05'0 0.0
2018-Jul-11 07:26N 29°47' W 095°05'0 0.0
2018-Jul-11 06:58N 29°47' W 095°05'0 0.0
2018-Jul-11 06:27N 29°47' W 095°05'0 0.0
2018-Jul-11 06:00N 29°47' W 095°05'0 0.0
2018-Jul-11 05:28N 29°47' W 095°05'0 0.0
2018-Jul-11 04:54N 29°47' W 095°05'0 0.0
2018-Jul-11 04:22N 29°47' W 095°05'0 0.0
2018-Jul-11 03:53N 29°47' W 095°05'0 0.0
2018-Jul-11 03:30N 29°47' W 095°05'0 0.0
2018-Jul-11 02:53N 29°47' W 095°05'0 0.0
2018-Jul-11 02:12N 29°47' W 095°05'2 0.2
2018-Jul-10 17:07N 29°45' W 095°04'1 7.1
2018-Jul-10 16:58N 29°44' W 095°03'3 6.2
2018-Jul-10 16:30N 29°42' W 095°01'3 6.4
2018-Jul-10 16:00N 29°40' W 094°58'4 7.3
2018-Jul-10 15:31N 29°37' W 094°57'4 7.0
2018-Jul-10 15:00N 29°34' W 094°55'7 7.4
2018-Jul-10 14:01N 29°27' W 094°51'0 6.7
2018-Jul-10 14:00N 29°27' W 094°51'6 7.2
2018-Jul-10 13:12N 29°22' W 094°47'3 5.7
2018-Jul-10 12:44N 29°24' W 094°45'2 7.1
2018-Jul-10 12:30N 29°25' W 094°44'  
Track history (hours):
 
Tides and Currents Weather Stations Pressure Air Temp Water Temp Dewpoint Dewpoint Depression Visibility Wind Speed Wind Dir Waves Ship Positions

Savage Insight

Owner: Savage Inland Marine, Gibson, LA. More information available from US FCC via Universal Licensing System and Coast Guard Vessel Documentation Center.

Last reported at 2018-Jul-20 12:18 UTC. Time now 2018-Jul-20 14:23 UTC.
Position N 29°59' W 090°24'.

Length 32 m.

Type: Towing. MMSI: 367503240.

Date/timePositionNaut miles runAvg speedWind from/ knotsBaromVisibWave heightAir tempDewpointWater temp
2018-Jul-20 12:18N 29°59' W 090°24'0 1.2
2018-Jul-20 12:00N 29°59' W 090°24'2 3.3
2018-Jul-20 11:30N 29°57' W 090°23'2 4.8
2018-Jul-20 10:59N 29°56' W 090°21'12 3.5
2018-Jul-20 07:32N 29°55' W 090°07'34 2.5
2018-Jul-19 17:44N 29°36' W 090°39'4 2.7
2018-Jul-19 16:25N 29°34' W 090°43'1 3.3
2018-Jul-19 15:59N 29°34' W 090°45'2 4.1
2018-Jul-19 15:30N 29°32' W 090°46'63 3.6
2018-Jul-18 22:20N 29°51' W 091°55'2 4.8
2018-Jul-18 22:00N 29°51' W 091°57'2 4.5
2018-Jul-18 21:30N 29°50' W 091°59'2 5.0
2018-Jul-18 21:00N 29°49' W 092°02'2 4.5
2018-Jul-18 20:30N 29°48' W 092°04'2 4.4
2018-Jul-18 20:00N 29°48' W 092°07'2 4.4
2018-Jul-18 19:30N 29°47' W 092°09'2 3.8
2018-Jul-18 19:00N 29°47' W 092°11'2 4.3
2018-Jul-18 18:30N 29°48' W 092°13'2 4.6
2018-Jul-18 18:00N 29°48' W 092°16'2 4.1
2018-Jul-18 17:30N 29°50' W 092°18'2 4.0
2018-Jul-18 17:00N 29°51' W 092°20'3 3.9
2018-Jul-18 16:15N 29°52' W 092°23'19 4.3
2018-Jul-18 11:50N 29°58' W 092°44'2 4.2
2018-Jul-18 11:27N 29°58' W 092°46'4 4.2
2018-Jul-18 10:30N 29°58' W 092°50'2 4.5
2018-Jul-18 09:59N 29°57' W 092°53'2 3.7
2018-Jul-18 09:27N 29°56' W 092°55'2 3.6
2018-Jul-18 09:00N 29°56' W 092°57'2 3.6
2018-Jul-18 08:26N 29°56' W 092°59'2 3.7
2018-Jul-18 07:57N 29°56' W 093°01'2 3.6
2018-Jul-18 07:29N 29°56' W 093°03'2 3.6
2018-Jul-18 06:58N 29°56' W 093°05'2 3.7
2018-Jul-18 06:30N 29°56' W 093°07'2 3.6
2018-Jul-18 06:00N 29°56' W 093°09'2 3.4
2018-Jul-18 05:30N 29°57' W 093°11'2 3.6
2018-Jul-18 05:00N 29°59' W 093°12'2 3.5
2018-Jul-18 04:30N 29°60' W 093°13'2 3.4
2018-Jul-18 04:00N 30°01' W 093°14'2 3.3
2018-Jul-18 03:30N 30°02' W 093°16'1 2.9
2018-Jul-18 03:00N 30°04' W 093°16'2 3.1
2018-Jul-18 02:30N 30°05' W 093°17'1 1.3
2018-Jul-18 02:00N 30°05' W 093°18'1 1.3
2018-Jul-18 01:30N 30°06' W 093°18'1 1.4
2018-Jul-18 01:00N 30°06' W 093°19'0 0.1
2018-Jul-18 00:30N 30°06' W 093°19'0 0.0
2018-Jul-18 00:00N 30°06' W 093°19'0 0.0
2018-Jul-17 23:30N 30°06' W 093°19'0 0.0
2018-Jul-17 23:00N 30°06' W 093°19'0 0.0
2018-Jul-17 22:30N 30°06' W 093°19'0 0.0
2018-Jul-17 22:00N 30°06' W 093°19'0 0.0
2018-Jul-17 21:30N 30°06' W 093°19'0 0.0
2018-Jul-17 21:00N 30°06' W 093°19'0 0.0
2018-Jul-17 20:30N 30°06' W 093°19'0 0.0
2018-Jul-17 19:59N 30°06' W 093°19'0 0.0
2018-Jul-17 19:30N 30°06' W 093°19'0 0.0
2018-Jul-17 19:00N 30°06' W 093°19'0 0.0
2018-Jul-17 18:30N 30°06' W 093°19'0 0.0
2018-Jul-17 18:00N 30°06' W 093°19'0 0.0
2018-Jul-17 17:30N 30°06' W 093°19'0 0.0
2018-Jul-17 17:00N 30°06' W 093°19'0 0.0
2018-Jul-17 16:30N 30°06' W 093°19'0 0.0
2018-Jul-17 16:00N 30°06' W 093°19'0 0.0
2018-Jul-17 15:30N 30°06' W 093°19'0 0.0
2018-Jul-17 15:00N 30°06' W 093°19'0 0.0
2018-Jul-17 14:30N 30°06' W 093°19'0 0.0
2018-Jul-17 14:00N 30°06' W 093°19'0 0.0
2018-Jul-17 13:30N 30°06' W 093°19'0 0.0
2018-Jul-17 13:00N 30°06' W 093°19'0 0.0
2018-Jul-17 12:30N 30°06' W 093°19'0 0.0
2018-Jul-17 12:00N 30°06' W 093°19'0 0.0
2018-Jul-17 11:30N 30°06' W 093°19'0 0.0
2018-Jul-17 11:00N 30°06' W 093°19'0 0.0
2018-Jul-17 10:30N 30°06' W 093°19'0 0.0
2018-Jul-17 10:00N 30°06' W 093°19'0 0.0
2018-Jul-17 09:30N 30°06' W 093°19'0 0.0
2018-Jul-17 09:00N 30°06' W 093°19'0 0.0
2018-Jul-17 08:30N 30°06' W 093°19'0 0.0
2018-Jul-17 08:00N 30°06' W 093°19'0 0.0
2018-Jul-17 07:30N 30°06' W 093°19'0 0.0
2018-Jul-17 07:00N 30°06' W 093°19'0 0.0
2018-Jul-17 06:26N 30°06' W 093°19'0 0.0
2018-Jul-17 05:59N 30°06' W 093°19'0 0.0
2018-Jul-17 05:20N 30°06' W 093°19'0 0.0
2018-Jul-17 04:58N 30°06' W 093°19'0 0.0
2018-Jul-17 04:17N 30°06' W 093°19'0 0.0
2018-Jul-17 03:33N 30°06' W 093°19'0 0.2
2018-Jul-17 03:30N 30°06' W 093°19'0 0.0
2018-Jul-17 02:59N 30°06' W 093°19'0 0.0
2018-Jul-17 02:30N 30°06' W 093°19'0 0.0
2018-Jul-17 02:00N 30°06' W 093°19'0 0.0
2018-Jul-17 01:30N 30°06' W 093°19'0 0.0
2018-Jul-17 01:00N 30°06' W 093°19'0 0.0
2018-Jul-17 00:30N 30°06' W 093°19'0 0.0
2018-Jul-16 23:28N 30°06' W 093°19'0 0.0
2018-Jul-16 23:00N 30°06' W 093°19'0 0.0
2018-Jul-16 22:30N 30°06' W 093°19'0 0.0
2018-Jul-16 22:00N 30°06' W 093°19'0 0.0
2018-Jul-16 21:29N 30°06' W 093°19'0 0.0
2018-Jul-16 21:00N 30°06' W 093°19'0 0.0
2018-Jul-16 20:30N 30°06' W 093°19'0 0.0
2018-Jul-16 20:00N 30°06' W 093°19'0 0.0
2018-Jul-16 19:30N 30°06' W 093°19'0 0.0
2018-Jul-16 19:00N 30°06' W 093°19'0 0.0
2018-Jul-16 18:30N 30°06' W 093°19'0 0.0
2018-Jul-16 18:00N 30°06' W 093°19'0 0.0
2018-Jul-16 17:30N 30°06' W 093°19'0 0.0
2018-Jul-16 17:00N 30°06' W 093°19'0 0.0
2018-Jul-16 16:28N 30°06' W 093°19'0 0.0
2018-Jul-16 16:00N 30°06' W 093°19'0 0.0
2018-Jul-16 15:30N 30°06' W 093°19'0 0.0
2018-Jul-16 15:00N 30°06' W 093°19'0 0.0
2018-Jul-16 14:30N 30°06' W 093°19'0 0.0
2018-Jul-16 14:00N 30°06' W 093°19'0 0.0
2018-Jul-16 13:30N 30°06' W 093°19'0 0.9
2018-Jul-16 13:00N 30°06' W 093°19'2 3.5
2018-Jul-16 12:30N 30°04' W 093°21'2 3.3
2018-Jul-16 12:00N 30°04' W 093°22'1 2.8
2018-Jul-16 11:30N 30°04' W 093°24'2 3.1
2018-Jul-16 10:59N 30°04' W 093°26'0 0.3
2018-Jul-16 10:31N 30°04' W 093°26'0 0.0
2018-Jul-16 10:01N 30°04' W 093°26'0 0.0
2018-Jul-16 09:30N 30°04' W 093°26'0 0.0
2018-Jul-16 08:57N 30°04' W 093°26'0 0.0
2018-Jul-16 08:30N 30°04' W 093°26'0 0.0
2018-Jul-16 08:00N 30°04' W 093°26'0 0.0
2018-Jul-16 07:30N 30°04' W 093°26'0 0.0
2018-Jul-16 07:00N 30°04' W 093°26'0 0.0
2018-Jul-16 06:30N 30°04' W 093°26'0 0.0
2018-Jul-16 06:00N 30°04' W 093°26'0 0.0
2018-Jul-16 05:30N 30°04' W 093°26'0 0.0
2018-Jul-16 05:00N 30°04' W 093°26'0 0.0
2018-Jul-16 04:30N 30°04' W 093°26'0 0.0
2018-Jul-16 04:00N 30°04' W 093°26'0 0.0
2018-Jul-16 03:30N 30°04' W 093°26'0 0.0
2018-Jul-16 03:00N 30°04' W 093°26'0 0.0
2018-Jul-16 02:29N 30°04' W 093°26'0 0.0
2018-Jul-16 02:00N 30°04' W 093°26'0 0.0
2018-Jul-16 01:30N 30°04' W 093°26'0 0.0
2018-Jul-16 01:00N 30°04' W 093°26'0 0.0
2018-Jul-16 00:30N 30°04' W 093°26'0 0.0
2018-Jul-16 00:00N 30°04' W 093°26'0 0.0
2018-Jul-15 23:30N 30°04' W 093°26'0 0.0
2018-Jul-15 23:00N 30°04' W 093°26'0 0.0
2018-Jul-15 22:30N 30°04' W 093°26'0 0.0
2018-Jul-15 22:00N 30°04' W 093°26'0 0.0
2018-Jul-15 21:30N 30°04' W 093°26'0 0.9
2018-Jul-15 21:00N 30°04' W 093°26'1 2.5
2018-Jul-15 20:30N 30°04' W 093°28'0 0.0
2018-Jul-15 20:00N 30°04' W 093°28'0 0.0
2018-Jul-15 19:30N 30°04' W 093°28'0 0.2
2018-Jul-15 19:00N 30°04' W 093°28'1 1.0
2018-Jul-15 18:30N 30°04' W 093°29'1 2.3
2018-Jul-15 18:00N 30°04' W 093°30'1 2.4
2018-Jul-15 17:30N 30°04' W 093°31'1 2.5
2018-Jul-15 17:00N 30°04' W 093°33'1 1.3
2018-Jul-15 16:30N 30°04' W 093°33'0 0.3
2018-Jul-15 16:00N 30°04' W 093°34'0 0.1
2018-Jul-15 15:30N 30°04' W 093°34'0 0.2
2018-Jul-15 15:00N 30°04' W 093°34'0 0.3
2018-Jul-15 14:30N 30°04' W 093°34'0 0.2
2018-Jul-15 14:00N 30°04' W 093°34'0 0.1
2018-Jul-15 13:29N 30°04' W 093°34'0 0.3
2018-Jul-15 13:00N 30°04' W 093°34'0 0.1
2018-Jul-15 12:30N 30°04' W 093°34'0 0.0
2018-Jul-15 11:58N 30°04' W 093°34'0 0.0
2018-Jul-15 11:29N 30°04' W 093°34'0 0.0
2018-Jul-15 11:00N 30°04' W 093°34'0 0.0
2018-Jul-15 10:29N 30°04' W 093°34'0 0.0
2018-Jul-15 09:53N 30°04' W 093°34'0 0.0
2018-Jul-15 09:28N 30°04' W 093°34'0 0.0
2018-Jul-15 09:00N 30°04' W 093°34'0 0.0
2018-Jul-15 08:30N 30°04' W 093°34'0 0.0
2018-Jul-15 08:00N 30°04' W 093°34'0 0.0
2018-Jul-15 07:30N 30°04' W 093°34'0 0.0
2018-Jul-15 07:00N 30°04' W 093°34'0 0.0
2018-Jul-15 06:30N 30°04' W 093°34'0 0.0
2018-Jul-15 06:00N 30°04' W 093°34'0 0.0
2018-Jul-15 05:30N 30°04' W 093°34'0 0.0
2018-Jul-15 05:00N 30°04' W 093°34'0 0.0
2018-Jul-15 04:30N 30°04' W 093°34'0 0.0
2018-Jul-15 04:00N 30°04' W 093°34'0 0.0
2018-Jul-15 03:28N 30°04' W 093°34'0 0.0
2018-Jul-15 02:59N 30°04' W 093°34'0 0.2
2018-Jul-15 02:30N 30°04' W 093°34'1 1.4
2018-Jul-15 01:59N 30°04' W 093°35'0 0.0
2018-Jul-15 01:30N 30°04' W 093°35'0 0.0
2018-Jul-15 01:00N 30°04' W 093°35'0 0.0
2018-Jul-15 00:21N 30°04' W 093°35'0 0.2
2018-Jul-14 23:12N 30°04' W 093°35'0 1.2
2018-Jul-14 22:59N 30°04' W 093°36'1 1.9
2018-Jul-14 22:19N 30°04' W 093°37'0 0.0
2018-Jul-14 21:52N 30°04' W 093°37'1 2.6
2018-Jul-14 21:29N 30°04' W 093°38'0 0.8
2018-Jul-14 21:00N 30°04' W 093°39'0 0.0
2018-Jul-14 20:30N 30°04' W 093°39'0 0.0
2018-Jul-14 20:00N 30°04' W 093°39'0 0.0
2018-Jul-14 19:30N 30°04' W 093°39'0 0.2
2018-Jul-14 18:34N 30°03' W 093°39'0 0.6
2018-Jul-14 18:15N 30°04' W 093°39'1 5.0
2018-Jul-14 17:59N 30°03' W 093°41'2 4.7
2018-Jul-14 17:30N 30°03' W 093°43'1 2.1
2018-Jul-14 17:00N 30°02' W 093°44'3 5.0
2018-Jul-14 16:30N 30°00' W 093°46'3 5.5
2018-Jul-14 16:00N 29°59' W 093°49'2 4.9
2018-Jul-14 15:30N 29°58' W 093°51'3 6.2
2018-Jul-14 15:00N 29°55' W 093°53'3 6.5
2018-Jul-14 14:30N 29°53' W 093°55'5 5.0
2018-Jul-14 13:31N 29°49' W 093°59'0 0.0
2018-Jul-14 13:01N 29°49' W 093°59'0 0.0
2018-Jul-14 12:30N 29°49' W 093°59'0 0.0
2018-Jul-14 12:00N 29°49' W 093°59'0 0.0
2018-Jul-14 11:31N 29°49' W 093°59'0 0.0
2018-Jul-14 11:01N 29°49' W 093°59'0 0.0
2018-Jul-14 10:30N 29°49' W 093°59'0 0.5
2018-Jul-14 10:00N 29°49' W 093°59'0 0.9
2018-Jul-14 09:30N 29°49' W 093°60'2 4.1
2018-Jul-14 09:00N 29°47' W 094°01'2 4.4
2018-Jul-14 08:30N 29°46' W 094°03'2 4.4
2018-Jul-14 08:00N 29°44' W 094°05'2 4.5
2018-Jul-14 07:30N 29°43' W 094°07'2 4.5
2018-Jul-14 07:00N 29°42' W 094°09'2 4.4
2018-Jul-14 06:30N 29°41' W 094°12'2 4.5
2018-Jul-14 06:00N 29°40' W 094°14'2 3.7
2018-Jul-14 05:30N 29°39' W 094°16'2 4.3
2018-Jul-14 05:00N 29°38' W 094°18'2 4.3
2018-Jul-14 04:29N 29°37' W 094°20'2 3.4
2018-Jul-14 04:00N 29°36' W 094°22'2 3.8
2018-Jul-14 03:29N 29°36' W 094°24'2 3.6
2018-Jul-14 02:57N 29°34' W 094°25'16 4.1
2018-Jul-13 23:02N 29°27' W 094°42'0 4.7
2018-Jul-13 23:00N 29°27' W 094°42'3 4.8
2018-Jul-13 22:29N 29°25' W 094°44'2 5.0
2018-Jul-13 22:00N 29°23' W 094°46'2 4.5
2018-Jul-13 21:30N 29°22' W 094°48'3 6.9
2018-Jul-13 21:00N 29°25' W 094°50'4 6.7
2018-Jul-13 20:25N 29°29' W 094°52'3 6.5
2018-Jul-13 19:57N 29°32' W 094°53'3 6.6
2018-Jul-13 19:31N 29°34' W 094°55'3 6.7
2018-Jul-13 19:00N 29°37' W 094°57'3 6.0
2018-Jul-13 18:30N 29°40' W 094°58'3 6.5
2018-Jul-13 18:00N 29°42' W 095°01'5 2.1
2018-Jul-13 15:32N 29°46' W 095°05'1 6.2
2018-Jul-13 15:19N 29°45' W 095°06'2 6.0
2018-Jul-13 14:55N 29°44' W 095°09'3 3.2
2018-Jul-13 13:54N 29°44' W 095°12'0 0.0
2018-Jul-13 11:18N 29°44' W 095°12'3 0.2
2018-Jul-12 22:53N 29°44' W 095°09'6 0.6
2018-Jul-12 13:59N 29°47' W 095°04'2 2.9
2018-Jul-12 13:23N 29°46' W 095°05'2 4.2
2018-Jul-12 12:59N 29°45' W 095°06'2 3.9
2018-Jul-12 12:28N 29°44' W 095°08'2 3.9
2018-Jul-12 11:51N 29°45' W 095°11'1 2.6
2018-Jul-12 11:23N 29°44' W 095°13'0 0.1
2018-Jul-12 10:55N 29°44' W 095°12'0 0.0
2018-Jul-12 10:15N 29°44' W 095°12'0 0.0
2018-Jul-12 10:00N 29°44' W 095°12'0 0.0
2018-Jul-12 09:29N 29°44' W 095°12'0 0.0
2018-Jul-12 08:45N 29°44' W 095°12'0 0.0
2018-Jul-12 08:26N 29°44' W 095°12'0 0.0
2018-Jul-12 06:34N 29°44' W 095°12'0 0.0
2018-Jul-12 06:22N 29°44' W 095°12'0 0.0
2018-Jul-12 05:57N 29°44' W 095°12'0 0.0
2018-Jul-12 05:28N 29°44' W 095°12'0 0.0
2018-Jul-12 04:07N 29°44' W 095°12'7 0.5
2018-Jul-11 14:27N 29°47' W 095°05'0 0.0
2018-Jul-11 13:49N 29°47' W 095°05'0 0.0
2018-Jul-11 13:28N 29°47' W 095°05'0 0.0
2018-Jul-11 12:52N 29°47' W 095°05'0 0.0
2018-Jul-11 12:30N 29°47' W 095°05'0 0.0
2018-Jul-11 11:58N 29°47' W 095°05'0 0.0
2018-Jul-11 11:28N 29°47' W 095°05'0 0.0
2018-Jul-11 10:13N 29°47' W 095°05'0 0.0
2018-Jul-11 09:57N 29°47' W 095°05'0 0.0
2018-Jul-11 09:10N 29°47' W 095°05'0 0.0
2018-Jul-11 08:39N 29°47' W 095°05'0 0.0
2018-Jul-11 08:28N 29°47' W 095°05'0 0.0
2018-Jul-11 08:00N 29°47' W 095°05'0 0.0
2018-Jul-11 07:26N 29°47' W 095°05'0 0.0
2018-Jul-11 06:58N 29°47' W 095°05'0 0.0
2018-Jul-11 06:27N 29°47' W 095°05'0 0.0
2018-Jul-11 06:00N 29°47' W 095°05'0 0.0
2018-Jul-11 05:28N 29°47' W 095°05'0 0.0
2018-Jul-11 04:54N 29°47' W 095°05'0 0.0
2018-Jul-11 04:22N 29°47' W 095°05'0 0.0
2018-Jul-11 03:53N 29°47' W 095°05'0 0.0
2018-Jul-11 03:30N 29°47' W 095°05'0 0.0
2018-Jul-11 02:53N 29°47' W 095°05'0 0.0
2018-Jul-11 02:12N 29°47' W 095°05'2 0.2
2018-Jul-10 17:07N 29°45' W 095°04'1 7.1
2018-Jul-10 16:58N 29°44' W 095°03'3 6.2
2018-Jul-10 16:30N 29°42' W 095°01'3 6.4
2018-Jul-10 16:00N 29°40' W 094°58'4 7.3
2018-Jul-10 15:31N 29°37' W 094°57'4 7.0
2018-Jul-10 15:00N 29°34' W 094°55'7 7.4
2018-Jul-10 14:01N 29°27' W 094°51'0 6.7
2018-Jul-10 14:00N 29°27' W 094°51'6 7.2
2018-Jul-10 13:12N 29°22' W 094°47'3 5.7
2018-Jul-10 12:44N 29°24' W 094°45'2 7.1
2018-Jul-10 12:30N 29°25' W 094°44'  

Dump ship's entire track history